createdAt,value
2022-08-11T00:00:06.806Z,66.20
2022-08-11T00:02:35.342Z,66.20
2022-08-11T00:05:15.050Z,66.10
2022-08-11T00:10:29.671Z,66.40
2022-08-11T00:20:50.100Z,67.50
2022-08-11T00:23:19.211Z,66.80
2022-08-11T00:25:51.804Z,66.80
2022-08-11T00:28:27.072Z,66.80
2022-08-11T00:30:55.561Z,66.90
2022-08-11T00:33:41.390Z,66.90
2022-08-11T00:36:14.900Z,67.00
2022-08-11T00:38:43.441Z,67.10
2022-08-11T00:41:32.290Z,67.20
2022-08-11T00:44:30.020Z,67.30
2022-08-11T00:47:03.481Z,67.40
2022-08-11T00:49:34.640Z,67.40
2022-08-11T00:52:44.155Z,67.50
2022-08-11T00:55:55.537Z,67.50
2022-08-11T00:58:59.215Z,67.50
2022-08-11T01:02:18.490Z,67.50
2022-08-11T01:05:13.991Z,67.60
2022-08-11T01:08:19.736Z,67.60
2022-08-11T01:11:20.100Z,67.70
2022-08-11T01:14:05.425Z,68.00
2022-08-11T01:16:50.893Z,68.10
2022-08-11T01:20:44.553Z,68.10
2022-08-11T01:22:58.939Z,68.20
2022-08-11T01:25:56.686Z,68.50
2022-08-11T01:28:49.014Z,68.50
2022-08-11T01:31:24.324Z,68.70
2022-08-11T01:33:59.879Z,68.70
2022-08-11T01:36:58.889Z,68.70
2022-08-11T01:40:08.302Z,68.70
2022-08-11T01:46:07.375Z,69.00
2022-08-11T01:48:49.258Z,68.90
2022-08-11T01:51:50.175Z,69.10
2022-08-11T01:54:28.205Z,69.20
2022-08-11T01:57:16.543Z,69.40
2022-08-11T01:59:54.387Z,69.40
2022-08-11T02:02:48.025Z,69.40
2022-08-11T02:08:33.866Z,69.40
2022-08-11T02:14:24.475Z,69.60
2022-08-11T02:17:14.181Z,69.70
2022-08-11T02:20:11.112Z,69.60
2022-08-11T02:25:57.594Z,69.90
2022-08-11T02:28:46.581Z,70.00
2022-08-11T02:32:24.445Z,70.20
2022-08-11T02:35:00.464Z,70.40
2022-08-11T02:37:33.436Z,70.40
2022-08-11T02:40:06.884Z,70.40
2022-08-11T02:42:42.623Z,70.40
2022-08-11T02:45:12.043Z,70.60
2022-08-11T02:48:16.575Z,70.80
2022-08-11T02:50:56.610Z,70.80
2022-08-11T02:53:50.957Z,70.80
2022-08-11T02:56:44.476Z,71.00
2022-08-11T02:59:46.899Z,70.80
2022-08-11T03:02:38.126Z,70.80
2022-08-11T03:05:20.944Z,70.80
2022-08-11T03:08:14.726Z,70.70
2022-08-11T03:11:24.884Z,70.90
2022-08-11T03:14:40.228Z,71.00
2022-08-11T03:17:23.047Z,71.20
2022-08-11T03:20:15.395Z,71.30
2022-08-11T03:23:02.466Z,71.30
2022-08-11T03:25:58.692Z,71.40
2022-08-11T03:34:09.054Z,71.50
2022-08-11T03:37:17.291Z,71.40
2022-08-11T03:40:52.518Z,71.50
2022-08-11T03:43:50.132Z,71.50
2022-08-11T03:47:15.985Z,71.60
2022-08-11T03:50:03.983Z,71.40
2022-08-11T03:52:42.160Z,71.40
2022-08-11T03:55:39.519Z,71.40
2022-08-11T03:58:46.176Z,71.30
2022-08-11T04:04:35.540Z,71.40
2022-08-11T04:07:39.596Z,71.60
2022-08-11T04:10:29.599Z,71.70
2022-08-11T04:13:33.623Z,71.80
2022-08-11T04:16:19.992Z,72.10
2022-08-11T04:19:01.296Z,72.10
2022-08-11T04:25:06.192Z,72.00
2022-08-11T04:27:47.925Z,72.00
2022-08-11T04:30:23.096Z,72.00
2022-08-11T04:32:53.395Z,72.20
2022-08-11T04:35:28.390Z,72.10
2022-08-11T04:37:54.932Z,72.00
2022-08-11T04:40:55.951Z,72.00
2022-08-11T04:44:06.422Z,72.00
2022-08-11T04:46:30.975Z,72.30
2022-08-11T04:49:50.563Z,72.20
2022-08-11T04:52:49.507Z,72.10
2022-08-11T04:55:56.324Z,72.00
2022-08-11T04:59:06.480Z,72.00
2022-08-11T05:02:16.953Z,72.30
2022-08-11T05:08:24.063Z,72.50
2022-08-11T05:11:12.767Z,72.50
2022-08-11T05:14:08.740Z,72.50
2022-08-11T05:17:16.598Z,72.50
2022-08-11T05:20:06.127Z,72.50
2022-08-11T05:22:53.116Z,72.60
2022-08-11T05:26:46.285Z,72.70
2022-08-11T05:29:20.099Z,72.70
2022-08-11T05:32:14.386Z,72.80
2022-08-11T05:34:54.295Z,72.90
2022-08-11T05:37:30.356Z,72.90
2022-08-11T05:40:29.662Z,73.10
2022-08-11T05:43:18.552Z,72.90
2022-08-11T05:46:14.631Z,72.90
2022-08-11T05:49:01.387Z,72.80
2022-08-11T05:52:05.804Z,72.70
2022-08-11T05:54:59.356Z,72.90
2022-08-11T05:57:49.795Z,72.80
2022-08-11T06:00:19.289Z,72.80
2022-08-11T06:02:55.773Z,72.70
2022-08-11T06:05:23.226Z,72.50
2022-08-11T06:07:55.552Z,72.50
2022-08-11T06:10:34.399Z,72.30
2022-08-11T06:13:02.253Z,72.30
2022-08-11T06:15:31.571Z,72.20
2022-08-11T06:18:01.203Z,72.20
2022-08-11T06:23:07.226Z,72.90
2022-08-11T06:28:08.743Z,72.10
2022-08-11T06:30:43.244Z,72.10
2022-08-11T06:33:15.772Z,72.10
2022-08-11T06:36:04.444Z,72.10
2022-08-11T06:38:40.019Z,72.10
2022-08-11T06:41:44.193Z,72.10
2022-08-11T06:44:13.744Z,72.10
2022-08-11T06:52:44.019Z,72.00
2022-08-11T06:55:57.979Z,72.10
2022-08-11T06:58:48.082Z,72.30
2022-08-11T07:01:19.967Z,72.20
2022-08-11T07:03:50.948Z,72.20
2022-08-11T07:06:50.479Z,72.30
2022-08-11T07:10:07.970Z,72.30
2022-08-11T07:12:59.559Z,72.30
2022-08-11T07:16:10.694Z,72.10
2022-08-11T07:18:52.800Z,72.30
2022-08-11T07:22:01.972Z,72.30
2022-08-11T07:24:59.297Z,72.30
2022-08-11T07:27:53.671Z,72.30
2022-08-11T07:30:20.579Z,72.30
2022-08-11T07:32:51.868Z,72.40
2022-08-11T07:35:33.770Z,72.30
2022-08-11T07:38:06.929Z,72.30
2022-08-11T07:40:36.677Z,72.30
2022-08-11T07:43:04.768Z,72.30
2022-08-11T07:45:50.860Z,72.20
2022-08-11T07:48:37.170Z,72.30
2022-08-11T07:53:58.813Z,72.40
2022-08-11T07:56:54.483Z,72.40
2022-08-11T08:00:04.368Z,72.50
2022-08-11T08:02:48.530Z,72.70
2022-08-11T08:05:36.198Z,73.00
2022-08-11T08:08:21.928Z,73.10
2022-08-11T08:11:08.770Z,73.30
2022-08-11T08:13:55.288Z,73.30
2022-08-11T08:16:40.774Z,73.50
2022-08-11T08:19:07.710Z,73.70
2022-08-11T08:21:34.457Z,73.80
2022-08-11T08:24:02.990Z,73.90
2022-08-11T08:26:51.777Z,74.10
2022-08-11T08:29:38.539Z,74.10
2022-08-11T08:34:41.057Z,74.40
2022-08-11T08:39:39.933Z,75.20
2022-08-11T08:42:11.675Z,75.40
2022-08-11T08:44:45.680Z,75.90
2022-08-11T08:47:38.747Z,75.90
2022-08-11T08:50:05.499Z,76.00
2022-08-11T08:52:43.649Z,75.90
2022-08-11T08:55:17.043Z,75.10
2022-08-11T08:57:45.136Z,74.70
2022-08-11T09:00:20.726Z,74.30
2022-08-11T09:02:50.007Z,73.80
2022-08-11T09:05:19.152Z,73.40
2022-08-11T09:07:50.985Z,73.60
2022-08-11T09:10:19.812Z,73.90
2022-08-11T09:15:19.556Z,74.20
2022-08-11T09:17:49.195Z,74.30
2022-08-11T09:20:24.551Z,74.50
2022-08-11T09:26:21.172Z,74.70
2022-08-11T09:28:49.635Z,74.80
2022-08-11T09:31:16.936Z,74.90
2022-08-11T09:33:44.609Z,75.00
2022-08-11T09:36:32.722Z,75.10
2022-08-11T09:39:19.327Z,75.20
2022-08-11T09:42:00.441Z,75.20
2022-08-11T09:44:48.974Z,75.20
2022-08-11T09:47:28.702Z,75.20
2022-08-11T09:50:00.365Z,75.00
2022-08-11T09:52:29.386Z,75.00
2022-08-11T09:54:56.340Z,74.90
2022-08-11T09:57:43.582Z,74.90
2022-08-11T10:00:14.108Z,74.80
2022-08-11T10:02:45.016Z,74.70
2022-08-11T10:05:35.557Z,74.70
2022-08-11T10:08:03.602Z,74.70
2022-08-11T10:14:30.193Z,74.60
2022-08-11T10:16:15.268Z,74.50
2022-08-11T10:18:52.817Z,74.60
2022-08-11T10:21:29.072Z,74.50
2022-08-11T10:24:17.807Z,74.40
2022-08-11T10:26:55.622Z,74.30
2022-08-11T10:30:09.016Z,74.30
2022-08-11T10:32:58.622Z,74.30
2022-08-11T10:35:29.461Z,74.30
2022-08-11T10:38:08.848Z,74.30
2022-08-11T10:40:39.600Z,74.20
2022-08-11T10:43:10.303Z,74.20
2022-08-11T10:45:57.590Z,74.10
2022-08-11T10:48:26.476Z,74.10
2022-08-11T10:51:12.955Z,74.10
2022-08-11T10:54:06.916Z,74.10
2022-08-11T10:56:57.797Z,74.10
2022-08-11T10:59:29.911Z,74.10
2022-08-11T11:01:58.992Z,74.10
2022-08-11T11:04:52.559Z,74.00
2022-08-11T11:07:24.783Z,73.90
2022-08-11T11:09:57.176Z,74.70
2022-08-11T11:12:57.173Z,73.90
2022-08-11T11:15:45.272Z,74.70
2022-08-11T11:18:38.572Z,74.70
2022-08-11T11:21:15.518Z,73.90
2022-08-11T11:23:53.388Z,73.90
2022-08-11T11:26:38.828Z,73.90
2022-08-11T11:32:09.409Z,73.90
2022-08-11T11:34:53.724Z,73.90
2022-08-11T11:37:23.010Z,73.70
2022-08-11T11:39:50.191Z,73.90
2022-08-11T11:42:18.467Z,73.80
2022-08-11T11:44:46.788Z,73.80
2022-08-11T11:47:15.468Z,73.80
2022-08-11T11:49:44.014Z,73.80
2022-08-11T11:52:18.196Z,73.80
2022-08-11T11:57:38.071Z,73.80
2022-08-11T12:02:58.371Z,73.80
2022-08-11T12:05:26.566Z,73.70
2022-08-11T12:08:14.342Z,73.70
2022-08-11T12:10:50.359Z,73.80
2022-08-11T12:13:37.570Z,73.60
2022-08-11T12:16:34.932Z,73.80
2022-08-11T12:18:55.012Z,73.70
2022-08-11T12:21:22.680Z,73.60
2022-08-11T12:24:09.168Z,73.70
2022-08-11T12:26:39.696Z,73.80
2022-08-11T12:29:10.454Z,73.70
2022-08-11T12:31:39.197Z,73.70
2022-08-11T12:34:14.675Z,73.80
2022-08-11T12:36:45.498Z,73.80
2022-08-11T12:40:15.867Z,73.70
2022-08-11T12:42:53.858Z,73.70
2022-08-11T12:45:29.710Z,73.80
2022-08-11T12:48:59.431Z,73.60
2022-08-11T12:52:11.803Z,73.70
2022-08-11T12:55:00.609Z,73.70
2022-08-11T12:57:55.635Z,73.90
2022-08-11T13:00:42.120Z,73.60
2022-08-11T13:03:29.101Z,73.60
2022-08-11T13:06:02.590Z,73.60
2022-08-11T13:08:31.482Z,73.60
2022-08-11T13:11:19.187Z,73.70
2022-08-11T13:13:55.225Z,73.60
2022-08-11T13:16:30.679Z,73.60
2022-08-11T13:19:00.769Z,74.50
2022-08-11T13:21:29.071Z,73.60
2022-08-11T13:24:01.388Z,73.60
2022-08-11T13:26:48.305Z,73.60
2022-08-11T13:29:24.660Z,73.70
2022-08-11T13:31:53.844Z,73.70
2022-08-11T13:34:22.987Z,73.70
2022-08-11T13:36:53.244Z,73.70
2022-08-11T13:39:25.996Z,73.70
2022-08-11T13:41:57.279Z,73.70
2022-08-11T13:44:29.904Z,73.70
2022-08-11T13:47:01.020Z,73.80
2022-08-11T13:49:28.747Z,73.70
2022-08-11T13:56:55.987Z,73.70
2022-08-11T13:59:28.179Z,73.70
2022-08-11T14:02:22.237Z,73.70
2022-08-11T14:04:57.904Z,73.70
2022-08-11T14:07:29.844Z,73.70
2022-08-11T14:09:59.620Z,73.70
2022-08-11T14:12:54.191Z,73.70
2022-08-11T14:15:24.948Z,73.60
2022-08-11T14:18:03.103Z,73.60
2022-08-11T14:20:51.061Z,73.60
2022-08-11T14:23:19.363Z,73.60
2022-08-11T14:26:04.812Z,73.70
2022-08-11T14:28:39.958Z,73.70
2022-08-11T14:31:09.420Z,73.60
2022-08-11T14:33:58.153Z,73.60
2022-08-11T14:36:26.286Z,73.60
2022-08-11T14:38:53.988Z,73.60
2022-08-11T14:42:11.229Z,73.70
2022-08-11T14:44:47.222Z,73.70
2022-08-11T14:47:24.021Z,73.70
2022-08-11T14:49:58.228Z,73.70
2022-08-11T14:52:38.829Z,73.60
2022-08-11T14:55:25.871Z,73.70
2022-08-11T14:58:04.859Z,73.60
2022-08-11T15:00:34.149Z,73.60
2022-08-11T15:03:12.219Z,73.60
2022-08-11T15:05:58.384Z,73.60
2022-08-11T15:08:52.376Z,74.40
2022-08-11T15:11:40.953Z,73.60
2022-08-11T15:14:09.792Z,73.60
2022-08-11T15:17:02.579Z,73.50
2022-08-11T15:19:40.262Z,73.60
2022-08-11T15:22:28.188Z,73.50
2022-08-11T15:27:42.022Z,73.60
2022-08-11T15:30:33.871Z,73.60
2022-08-11T15:42:27.399Z,73.70
2022-08-11T15:45:17.304Z,73.80
2022-08-11T15:47:58.500Z,73.70
2022-08-11T15:50:35.546Z,73.60
2022-08-11T15:53:33.052Z,73.70
2022-08-11T15:56:01.514Z,73.60
2022-08-11T15:59:10.748Z,74.50
2022-08-11T16:01:59.277Z,73.60
2022-08-11T16:04:30.031Z,73.60
2022-08-11T16:07:12.994Z,73.70
2022-08-11T16:09:51.937Z,73.70
2022-08-11T16:12:26.031Z,73.70
2022-08-11T16:15:20.016Z,73.80
2022-08-11T16:18:03.341Z,73.80
2022-08-11T16:20:31.666Z,73.70
2022-08-11T16:23:03.136Z,73.80
2022-08-11T16:27:03.580Z,73.80
2022-08-11T16:28:21.877Z,73.80
2022-08-11T16:30:49.252Z,73.70
2022-08-11T16:33:48.814Z,73.70
2022-08-11T16:36:23.679Z,73.70
2022-08-11T16:38:51.343Z,73.70
2022-08-11T16:41:39.811Z,73.70
2022-08-11T16:44:37.298Z,73.70
2022-08-11T16:47:12.040Z,73.50
2022-08-11T16:49:52.873Z,73.60
2022-08-11T16:52:20.949Z,73.50
2022-08-11T16:54:48.130Z,73.50
2022-08-11T16:57:44.694Z,73.50
2022-08-11T17:00:15.969Z,73.50
2022-08-11T17:03:08.648Z,73.50
2022-08-11T17:05:57.527Z,73.50
2022-08-11T17:08:57.609Z,73.50
2022-08-11T17:11:47.778Z,73.60
2022-08-11T17:14:35.548Z,74.40
2022-08-11T17:17:07.084Z,73.60
2022-08-11T17:20:39.581Z,73.60
2022-08-11T17:22:45.144Z,73.70
2022-08-11T17:25:12.949Z,73.70
2022-08-11T17:27:42.009Z,73.70
2022-08-11T17:30:11.360Z,73.70
2022-08-11T17:33:01.315Z,73.70
2022-08-11T17:35:38.637Z,73.70
2022-08-11T17:38:16.953Z,73.80
2022-08-11T17:41:05.320Z,73.80
2022-08-11T17:43:51.591Z,73.80
2022-08-11T17:51:54.687Z,73.90
2022-08-11T17:54:42.162Z,73.90
2022-08-11T17:57:28.780Z,74.00
2022-08-11T17:59:57.714Z,74.00
2022-08-11T18:02:59.503Z,74.00
2022-08-11T18:05:29.840Z,74.00
2022-08-11T18:11:06.429Z,74.00
2022-08-11T18:13:55.440Z,74.00
2022-08-11T18:16:41.352Z,74.10
2022-08-11T18:19:27.117Z,74.10
2022-08-11T18:22:23.990Z,74.10
2022-08-11T18:25:15.507Z,74.10
2022-08-11T18:28:03.362Z,74.10
2022-08-11T18:30:54.609Z,74.10
2022-08-11T18:34:07.510Z,74.10
2022-08-11T18:36:59.177Z,74.20
2022-08-11T18:39:54.493Z,74.20
2022-08-11T18:42:42.909Z,75.00
2022-08-11T18:45:35.158Z,74.20
2022-08-11T18:48:37.131Z,74.20
2022-08-11T18:51:30.725Z,74.20
2022-08-11T18:54:26.406Z,74.20
2022-08-11T18:57:14.963Z,74.20
2022-08-11T19:00:02.554Z,73.20
2022-08-11T19:02:50.454Z,71.90
2022-08-11T19:06:31.895Z,71.10
2022-08-11T19:08:48.230Z,72.10
2022-08-11T19:11:34.231Z,71.40
2022-08-11T19:14:27.186Z,70.20
2022-08-11T19:17:14.110Z,69.70
2022-08-11T19:20:22.613Z,70.00
2022-08-11T19:23:09.188Z,69.30
2022-08-11T19:31:43.826Z,68.40
2022-08-11T19:34:41.016Z,68.60
2022-08-11T19:37:27.740Z,68.60
2022-08-11T19:40:16.224Z,68.40
2022-08-11T19:43:11.114Z,68.40
2022-08-11T19:46:11.403Z,68.40
2022-08-11T19:48:58.505Z,68.80
2022-08-11T19:51:44.077Z,69.20
2022-08-11T19:54:30.409Z,67.60
2022-08-11T19:57:16.826Z,66.50
2022-08-11T20:00:02.786Z,67.30
2022-08-11T20:02:48.215Z,65.90
2022-08-11T20:05:33.749Z,65.40
2022-08-11T20:08:19.017Z,65.30
2022-08-11T20:11:06.086Z,65.50
2022-08-11T20:13:52.615Z,65.00
2022-08-11T20:16:41.108Z,64.60
2022-08-11T20:22:15.066Z,64.50
2022-08-11T20:25:01.623Z,65.00
2022-08-11T20:27:46.918Z,65.00
2022-08-11T20:30:32.825Z,65.10
2022-08-11T20:33:19.003Z,65.30
2022-08-11T20:36:08.030Z,65.40
2022-08-11T20:41:58.203Z,65.70
2022-08-11T20:44:45.971Z,65.80
2022-08-11T20:47:33.881Z,65.80
2022-08-11T20:50:40.610Z,65.50
2022-08-11T20:53:29.248Z,66.00
2022-08-11T20:56:17.106Z,66.10
2022-08-11T20:59:21.680Z,66.40
2022-08-11T21:02:09.413Z,66.60
2022-08-11T21:04:56.639Z,66.80
2022-08-11T21:07:50.268Z,66.90
2022-08-11T21:10:46.778Z,67.00
2022-08-11T21:13:34.293Z,67.10
2022-08-11T21:16:26.569Z,67.10
2022-08-11T21:19:54.998Z,67.30
2022-08-11T21:22:59.169Z,67.30
2022-08-11T21:25:51.709Z,67.50
2022-08-11T21:28:39.691Z,67.60
2022-08-11T21:31:27.011Z,67.90
2022-08-11T21:34:14.495Z,68.40
2022-08-11T21:37:01.568Z,68.50
2022-08-11T21:45:31.444Z,68.10
2022-08-11T21:48:17.810Z,68.30
2022-08-11T21:51:03.219Z,68.70
2022-08-11T21:53:50.665Z,68.80
2022-08-11T22:05:11.297Z,69.20
2022-08-11T22:07:58.401Z,69.60
2022-08-11T22:10:43.815Z,69.80
2022-08-11T22:13:31.263Z,69.80
2022-08-11T22:16:18.282Z,69.80
2022-08-11T22:19:05.689Z,69.80
2022-08-11T22:22:03.025Z,69.80
2022-08-11T22:24:50.004Z,70.00
2022-08-11T22:27:35.319Z,70.30
2022-08-11T22:30:20.784Z,70.80
2022-08-11T22:33:06.151Z,70.70
2022-08-11T22:35:53.143Z,70.90
2022-08-11T22:38:39.012Z,71.10
2022-08-11T22:41:24.302Z,71.00
2022-08-11T22:44:09.879Z,70.90
2022-08-11T22:46:55.610Z,70.90
2022-08-11T22:49:42.606Z,71.10
2022-08-11T22:52:44.491Z,71.20
2022-08-11T22:55:30.312Z,71.00
2022-08-11T22:58:16.294Z,70.90
2022-08-11T23:03:54.359Z,70.10
2022-08-11T23:06:40.678Z,69.80
2022-08-11T23:09:27.119Z,69.80
2022-08-11T23:12:12.507Z,69.80
2022-08-11T23:14:59.984Z,70.00
2022-08-11T23:17:46.444Z,70.30
2022-08-11T23:20:48.674Z,70.70
2022-08-11T23:23:40.047Z,70.70
2022-08-11T23:26:26.032Z,70.60
2022-08-11T23:29:14.642Z,70.50
2022-08-11T23:32:00.436Z,70.60
2022-08-11T23:35:04.021Z,70.50
2022-08-11T23:37:55.811Z,70.70
2022-08-11T23:40:45.200Z,70.60
2022-08-11T23:43:38.540Z,70.50
2022-08-11T23:46:24.108Z,70.50
2022-08-11T23:55:04.117Z,70.80
2022-08-11T23:57:49.601Z,71.00
